createdAt,value
2023-01-21T00:00:47.579Z,93.08
2023-01-21T00:01:47.581Z,93.19
2023-01-21T00:02:47.556Z,93.62
2023-01-21T00:03:47.602Z,93.83
2023-01-21T00:04:47.557Z,94.04
2023-01-21T00:05:47.513Z,94.15
2023-01-21T00:06:47.492Z,94.25
2023-01-21T00:07:47.488Z,94.46
2023-01-21T00:08:47.478Z,94.72
2023-01-21T00:09:47.457Z,95.04
2023-01-21T00:10:47.455Z,95.36
2023-01-21T00:11:47.438Z,95.63
2023-01-21T00:12:47.425Z,95.78
2023-01-21T00:13:47.407Z,95.84
2023-01-21T00:14:47.399Z,95.84
2023-01-21T00:15:47.428Z,95.95
2023-01-21T00:16:47.375Z,96.00
2023-01-21T00:17:47.372Z,95.89
2023-01-21T00:18:47.343Z,95.84
2023-01-21T00:19:47.333Z,95.95
2023-01-21T00:20:47.356Z,95.74
2023-01-21T00:21:47.309Z,95.42
2023-01-21T00:22:47.299Z,95.21
2023-01-21T00:23:47.281Z,95.42
2023-01-21T00:24:47.263Z,95.27
2023-01-21T00:25:47.257Z,95.27
2023-01-21T00:26:47.248Z,94.95
2023-01-21T00:27:47.236Z,94.42
2023-01-21T00:28:47.218Z,93.89
2023-01-21T00:29:47.208Z,94.00
2023-01-21T00:30:47.287Z,94.00
2023-01-21T00:31:47.343Z,93.57
2023-01-21T00:32:47.174Z,93.36
2023-01-21T00:33:47.156Z,93.15
2023-01-21T00:34:47.139Z,93.15
2023-01-21T00:35:47.126Z,93.26
2023-01-21T00:36:47.136Z,93.47
2023-01-21T00:37:47.104Z,93.47
2023-01-21T00:38:47.092Z,93.26
2023-01-21T00:39:47.070Z,93.26
2023-01-21T00:40:47.057Z,93.57
2023-01-21T00:41:47.048Z,93.79
2023-01-21T00:42:47.036Z,93.68
2023-01-21T00:43:47.027Z,93.43
2023-01-21T00:44:47.020Z,93.11
2023-01-21T00:45:47.001Z,92.68
2023-01-21T00:46:46.978Z,92.41
2023-01-21T00:47:46.972Z,92.36
2023-01-21T00:48:46.959Z,92.62
2023-01-21T00:49:46.949Z,92.68
2023-01-21T00:50:46.951Z,92.68
2023-01-21T00:51:46.916Z,92.83
2023-01-21T00:52:46.933Z,92.79
2023-01-21T00:53:46.896Z,92.83
2023-01-21T00:54:46.884Z,92.94
2023-01-21T00:55:46.869Z,92.98
2023-01-21T00:56:46.848Z,93.08
2023-01-21T00:57:46.834Z,93.30
2023-01-21T00:58:46.821Z,93.40
2023-01-21T00:59:46.827Z,93.51
2023-01-21T01:00:46.798Z,93.72
2023-01-21T01:01:46.844Z,93.93
2023-01-21T01:02:46.940Z,94.15
2023-01-21T01:03:46.764Z,94.15
2023-01-21T01:04:46.746Z,93.93
2023-01-21T01:05:46.739Z,93.93
2023-01-21T01:06:46.728Z,94.04
2023-01-21T01:07:46.705Z,94.10
2023-01-21T01:08:46.726Z,93.89
2023-01-21T01:09:46.692Z,93.79
2023-01-21T01:10:46.672Z,93.96
2023-01-21T01:11:46.665Z,94.00
2023-01-21T01:12:46.642Z,93.74
2023-01-21T01:13:46.628Z,93.57
2023-01-21T01:14:46.632Z,93.36
2023-01-21T01:15:46.631Z,93.26
2023-01-21T01:16:46.597Z,93.26
2023-01-21T01:17:46.590Z,93.47
2023-01-21T01:18:46.563Z,93.57
2023-01-21T01:19:46.563Z,93.89
2023-01-21T01:20:46.541Z,93.96
2023-01-21T01:21:46.526Z,93.96
2023-01-21T01:22:46.521Z,93.85
2023-01-21T01:23:46.510Z,93.53
2023-01-21T01:24:46.513Z,93.43
2023-01-21T01:25:46.479Z,93.43
2023-01-21T01:26:46.462Z,93.64
2023-01-21T01:27:46.455Z,93.85
2023-01-21T01:28:46.449Z,94.17
2023-01-21T01:29:46.433Z,93.74
2023-01-21T01:30:46.548Z,93.43
2023-01-21T01:31:46.457Z,93.53
2023-01-21T01:32:46.385Z,93.70
2023-01-21T01:33:46.380Z,93.80
2023-01-21T01:34:46.366Z,93.70
2023-01-21T01:35:46.353Z,93.60
2023-01-21T01:36:46.336Z,93.70
2023-01-21T01:37:46.317Z,93.80
2023-01-21T01:38:46.319Z,93.91
2023-01-21T01:39:46.290Z,94.17
2023-01-21T01:40:46.323Z,94.06
2023-01-21T01:41:46.271Z,94.06
2023-01-21T01:42:46.284Z,94.06
2023-01-21T01:43:46.238Z,94.17
2023-01-21T01:44:46.227Z,94.38
2023-01-21T01:45:46.217Z,94.59
2023-01-21T01:46:46.302Z,94.91
2023-01-21T01:47:46.205Z,95.23
2023-01-21T01:48:46.175Z,95.34
2023-01-21T01:49:46.166Z,95.34
2023-01-21T01:50:46.200Z,95.23
2023-01-21T01:51:46.157Z,95.02
2023-01-21T01:52:46.145Z,95.02
2023-01-21T01:53:46.118Z,95.12
2023-01-21T01:54:46.103Z,95.38
2023-01-21T01:55:46.097Z,95.80
2023-01-21T01:56:46.112Z,96.23
2023-01-21T01:57:46.057Z,96.55
2023-01-21T01:58:46.049Z,96.65
2023-01-21T01:59:46.033Z,96.97
2023-01-21T02:00:46.033Z,97.08
2023-01-21T02:01:46.046Z,97.18
2023-01-21T02:02:46.026Z,97.18
2023-01-21T02:03:46.021Z,97.18
2023-01-21T02:04:45.968Z,97.18
2023-01-21T02:05:45.956Z,97.29
2023-01-21T02:06:45.948Z,97.39
2023-01-21T02:07:45.938Z,97.50
2023-01-21T02:08:45.920Z,97.67
2023-01-21T02:09:45.908Z,97.71
2023-01-21T02:10:45.892Z,97.77
2023-01-21T02:11:45.877Z,97.92
2023-01-21T02:12:45.893Z,98.03
2023-01-21T02:13:45.858Z,98.14
2023-01-21T02:14:45.845Z,98.35
2023-01-21T02:15:45.989Z,98.46
2023-01-21T02:16:45.819Z,98.77
2023-01-21T02:17:45.804Z,98.88
2023-01-21T02:18:45.790Z,98.99
2023-01-21T02:19:45.771Z,99.09
2023-01-21T02:20:45.758Z,99.37
2023-01-21T02:21:45.750Z,99.47
2023-01-21T02:22:45.733Z,99.53
2023-01-21T02:23:45.727Z,99.53
2023-01-21T02:24:45.704Z,99.43
2023-01-21T02:25:45.708Z,99.11
2023-01-21T02:26:45.693Z,99.00
2023-01-21T02:27:45.675Z,98.90
2023-01-21T02:28:45.684Z,98.79
2023-01-21T02:29:45.639Z,98.68
2023-01-21T02:30:45.664Z,98.68
2023-01-21T02:31:45.653Z,98.68
2023-01-21T02:32:45.599Z,98.68
2023-01-21T02:33:45.617Z,98.79
2023-01-21T02:34:45.586Z,98.85
2023-01-21T02:35:45.581Z,98.74
2023-01-21T02:36:45.551Z,98.54
2023-01-21T02:37:45.542Z,98.36
2023-01-21T02:38:45.537Z,98.36
2023-01-21T02:39:45.511Z,98.43
2023-01-21T02:40:45.518Z,98.43
2023-01-21T02:41:45.489Z,98.43
2023-01-21T02:42:45.483Z,98.43
2023-01-21T02:43:45.460Z,98.36
2023-01-21T02:44:45.476Z,98.26
2023-01-21T02:45:45.435Z,98.05
2023-01-21T02:46:45.466Z,97.94
2023-01-21T02:47:45.402Z,98.05
2023-01-21T02:48:45.396Z,98.05
2023-01-21T02:49:45.380Z,98.26
2023-01-21T02:50:45.449Z,98.16
2023-01-21T02:51:45.350Z,98.05
2023-01-21T02:52:45.345Z,97.83
2023-01-21T02:53:45.324Z,97.83
2023-01-21T02:54:45.312Z,97.94
2023-01-21T02:55:45.311Z,97.83
2023-01-21T02:56:45.289Z,97.77
2023-01-21T02:57:45.273Z,97.73
2023-01-21T02:58:45.259Z,97.77
2023-01-21T02:59:45.262Z,97.73
2023-01-21T03:00:45.284Z,97.45
2023-01-21T03:01:45.269Z,97.35
2023-01-21T03:02:45.216Z,97.14
2023-01-21T03:03:45.195Z,97.03
2023-01-21T03:04:45.189Z,97.03
2023-01-21T03:05:45.168Z,96.82
2023-01-21T03:06:45.158Z,96.72
2023-01-21T03:07:45.151Z,96.65
2023-01-21T03:08:45.138Z,96.72
2023-01-21T03:09:45.125Z,96.76
2023-01-21T03:10:45.106Z,96.82
2023-01-21T03:11:45.097Z,96.97
2023-01-21T03:12:45.094Z,96.86
2023-01-21T03:13:45.072Z,96.76
2023-01-21T03:14:45.082Z,96.76
2023-01-21T03:15:45.045Z,96.65
2023-01-21T03:16:45.061Z,96.76
2023-01-21T03:17:45.035Z,96.86
2023-01-21T03:18:44.999Z,96.97
2023-01-21T03:19:45.013Z,96.65
2023-01-21T03:20:44.975Z,96.44
2023-01-21T03:21:44.960Z,96.44
2023-01-21T03:22:44.954Z,96.44
2023-01-21T03:23:44.942Z,96.44
2023-01-21T03:24:44.921Z,96.44
2023-01-21T03:25:44.918Z,96.37
2023-01-21T03:26:44.902Z,96.27
2023-01-21T03:27:44.907Z,96.27
2023-01-21T03:28:44.868Z,96.59
2023-01-21T03:29:44.863Z,96.80
2023-01-21T03:30:44.853Z,97.02
2023-01-21T03:31:44.871Z,97.12
2023-01-21T03:32:45.248Z,97.12
2023-01-21T03:33:46.714Z,97.02
2023-01-21T03:34:44.794Z,97.12
2023-01-21T03:35:44.789Z,96.91
2023-01-21T03:36:44.769Z,96.84
2023-01-21T03:37:44.758Z,96.63
2023-01-21T03:38:44.747Z,96.63
2023-01-21T03:39:44.735Z,96.42
2023-01-21T03:40:44.717Z,96.20
2023-01-21T03:41:44.711Z,96.00
2023-01-21T03:42:44.703Z,95.89
2023-01-21T03:43:44.685Z,96.04
2023-01-21T03:44:44.661Z,96.20
2023-01-21T03:45:44.735Z,96.31
2023-01-21T03:46:44.636Z,96.00
2023-01-21T03:47:44.639Z,95.67
2023-01-21T03:48:44.634Z,95.47
2023-01-21T03:49:44.597Z,95.47
2023-01-21T03:50:44.694Z,95.36
2023-01-21T03:51:44.582Z,95.36
2023-01-21T03:52:44.556Z,95.36
2023-01-21T03:53:44.543Z,94.93
2023-01-21T03:54:44.538Z,94.72
2023-01-21T03:55:44.532Z,94.51
2023-01-21T03:56:44.509Z,94.45
2023-01-21T03:57:44.501Z,94.40
2023-01-21T03:58:44.480Z,94.45
2023-01-21T03:59:44.472Z,94.40
2023-01-21T04:00:44.500Z,94.55
2023-01-21T04:01:44.448Z,94.23
2023-01-21T04:02:44.432Z,94.02
2023-01-21T04:03:44.416Z,93.91
2023-01-21T04:04:44.418Z,93.49
2023-01-21T04:05:44.407Z,93.27
2023-01-21T04:06:44.370Z,93.27
2023-01-21T04:07:44.357Z,93.49
2023-01-21T04:08:44.341Z,93.49
2023-01-21T04:09:44.329Z,93.42
2023-01-21T04:10:44.319Z,93.21
2023-01-21T04:11:44.315Z,93.17
2023-01-21T04:12:44.289Z,92.96
2023-01-21T04:13:44.297Z,93.00
2023-01-21T04:14:44.264Z,93.17
2023-01-21T04:15:44.251Z,93.63
2023-01-21T04:16:44.339Z,93.80
2023-01-21T04:17:44.231Z,93.70
2023-01-21T04:18:44.220Z,93.80
2023-01-21T04:19:44.201Z,93.66
2023-01-21T04:20:44.225Z,93.27
2023-01-21T04:21:44.178Z,93.23
2023-01-21T04:22:44.159Z,93.13
2023-01-21T04:23:44.160Z,91.79
2023-01-21T04:24:44.140Z,90.94
2023-01-21T04:25:44.122Z,90.72
2023-01-21T04:26:44.105Z,90.66
2023-01-21T04:27:44.102Z,90.66
2023-01-21T04:28:44.083Z,90.77
2023-01-21T04:29:44.077Z,90.98
2023-01-21T04:30:44.070Z,90.88
2023-01-21T04:31:44.142Z,90.88
2023-01-21T04:32:44.040Z,91.30
2023-01-21T04:33:44.042Z,91.51
2023-01-21T04:34:44.004Z,91.72
2023-01-21T04:35:44.005Z,92.04
2023-01-21T04:36:44.013Z,92.08
2023-01-21T04:37:43.963Z,91.66
2023-01-21T04:38:43.958Z,91.44
2023-01-21T04:39:43.936Z,91.77
2023-01-21T04:40:43.934Z,92.30
2023-01-21T04:41:43.930Z,92.72
2023-01-21T04:42:43.909Z,93.04
2023-01-21T04:43:43.896Z,92.97
2023-01-21T04:44:43.875Z,92.97
2023-01-21T04:45:43.933Z,93.29
2023-01-21T04:46:43.864Z,93.51
2023-01-21T04:47:43.841Z,93.82
2023-01-21T04:48:43.837Z,94.15
2023-01-21T04:49:43.810Z,94.32
2023-01-21T04:50:43.900Z,94.42
2023-01-21T04:51:43.796Z,94.53
2023-01-21T04:52:43.808Z,94.74
2023-01-21T04:53:43.768Z,94.74
2023-01-21T04:54:43.762Z,94.74
2023-01-21T04:55:43.744Z,94.85
2023-01-21T04:56:43.714Z,95.02
2023-01-21T04:57:43.719Z,95.17
2023-01-21T04:58:43.691Z,95.38
2023-01-21T04:59:43.689Z,95.59
2023-01-21T05:00:43.664Z,95.91
2023-01-21T05:01:43.657Z,96.01
2023-01-21T05:02:43.646Z,95.91
2023-01-21T05:03:43.644Z,95.28
2023-01-21T05:04:43.609Z,94.68
2023-01-21T05:05:43.604Z,94.68
2023-01-21T05:06:43.586Z,94.82
2023-01-21T05:07:43.594Z,95.15
2023-01-21T05:08:43.590Z,95.36
2023-01-21T05:09:43.554Z,95.36
2023-01-21T05:10:43.565Z,95.25
2023-01-21T05:11:43.526Z,95.25
2023-01-21T05:12:43.522Z,95.15
2023-01-21T05:13:43.509Z,95.15
2023-01-21T05:14:43.484Z,95.25
2023-01-21T05:15:43.505Z,95.25
2023-01-21T05:16:43.503Z,94.93
2023-01-21T05:17:43.450Z,94.51
2023-01-21T05:18:46.388Z,94.29
2023-01-21T05:19:43.416Z,94.08
2023-01-21T05:20:43.417Z,93.98
2023-01-21T05:21:43.396Z,93.91
2023-01-21T05:22:43.375Z,93.91
2023-01-21T05:23:43.362Z,94.23
2023-01-21T05:24:43.376Z,94.19
2023-01-21T05:25:43.338Z,93.98
2023-01-21T05:26:43.330Z,93.87
2023-01-21T05:27:43.311Z,93.80
2023-01-21T05:28:43.302Z,93.76
2023-01-21T05:29:43.292Z,93.76
2023-01-21T05:30:44.699Z,93.87
2023-01-21T05:31:43.403Z,93.66
2023-01-21T05:32:43.250Z,93.44
2023-01-21T05:33:43.232Z,93.33
2023-01-21T05:34:43.226Z,93.23
2023-01-21T05:35:43.207Z,93.02
2023-01-21T05:36:43.203Z,93.02
2023-01-21T05:37:43.215Z,93.08
2023-01-21T05:38:43.182Z,92.97
2023-01-21T05:39:43.162Z,92.97
2023-01-21T05:40:43.166Z,92.66
2023-01-21T05:41:43.130Z,92.55
2023-01-21T05:42:43.123Z,92.66
2023-01-21T05:43:43.107Z,92.66
2023-01-21T05:44:43.092Z,92.55
2023-01-21T05:45:43.076Z,92.51
2023-01-21T05:46:43.062Z,92.51
2023-01-21T05:47:43.048Z,92.51
2023-01-21T05:48:43.045Z,92.19
2023-01-21T05:49:43.032Z,91.44
2023-01-21T05:50:43.019Z,91.06
2023-01-21T05:51:42.993Z,91.17
2023-01-21T05:52:42.992Z,90.95
2023-01-21T05:53:42.976Z,90.74
2023-01-21T05:54:59.992Z,90.53
2023-01-21T05:55:43.987Z,90.78
2023-01-21T05:56:42.967Z,91.00
2023-01-21T05:57:42.924Z,91.25
2023-01-21T05:58:42.913Z,91.36
2023-01-21T05:59:42.889Z,91.56
2023-01-21T06:00:42.883Z,91.78
2023-01-21T06:01:42.882Z,91.99
2023-01-21T06:02:42.924Z,92.14
2023-01-21T06:03:42.878Z,92.21
2023-01-21T06:04:42.827Z,92.25
2023-01-21T06:05:42.812Z,92.14
2023-01-21T06:06:42.810Z,91.93
2023-01-21T06:07:42.805Z,91.82
2023-01-21T06:08:42.769Z,91.93
2023-01-21T06:09:42.767Z,92.25
2023-01-21T06:10:42.752Z,92.10
2023-01-21T06:11:42.755Z,92.03
2023-01-21T06:12:42.773Z,91.93
2023-01-21T06:13:42.750Z,91.93
2023-01-21T06:14:42.729Z,92.10
2023-01-21T06:15:42.807Z,92.10
2023-01-21T06:16:42.666Z,92.21
2023-01-21T06:17:42.662Z,91.89
2023-01-21T06:18:42.651Z,91.56
2023-01-21T06:19:42.628Z,91.56
2023-01-21T06:20:42.660Z,91.89
2023-01-21T06:21:42.615Z,92.21
2023-01-21T06:22:42.589Z,92.16
2023-01-21T06:23:42.575Z,92.16
2023-01-21T06:24:42.562Z,92.13
2023-01-21T06:25:42.557Z,91.70
2023-01-21T06:26:42.542Z,91.38
2023-01-21T06:27:42.531Z,91.27
2023-01-21T06:28:42.532Z,90.91
2023-01-21T06:29:42.501Z,90.59
2023-01-21T06:30:42.483Z,90.06
2023-01-21T06:31:42.568Z,89.47
2023-01-21T06:32:42.461Z,89.04
2023-01-21T06:33:42.452Z,88.61
2023-01-21T06:34:43.293Z,88.87
2023-01-21T06:35:42.435Z,89.40
2023-01-21T06:36:42.417Z,89.08
2023-01-21T06:37:42.394Z,88.55
2023-01-21T06:38:42.382Z,88.55
2023-01-21T06:39:42.373Z,89.29
2023-01-21T06:40:42.352Z,89.61
2023-01-21T06:41:42.340Z,89.61
2023-01-21T06:42:42.333Z,89.93
2023-01-21T06:43:42.314Z,89.93
2023-01-21T06:44:42.353Z,89.83
2023-01-21T06:45:42.313Z,89.78
2023-01-21T06:46:45.954Z,89.83
2023-01-21T06:47:43.308Z,89.83
2023-01-21T06:48:42.259Z,89.83
2023-01-21T06:49:42.249Z,89.57
2023-01-21T06:50:42.231Z,89.08
2023-01-21T06:51:42.221Z,88.87
2023-01-21T06:52:42.204Z,89.29
2023-01-21T06:53:42.192Z,89.36
2023-01-21T06:54:42.170Z,89.40
2023-01-21T06:55:42.161Z,89.47
2023-01-21T06:56:42.172Z,89.61
2023-01-21T06:57:42.151Z,88.97
2023-01-21T06:58:42.125Z,88.65
2023-01-21T06:59:42.114Z,88.97
2023-01-21T07:00:42.130Z,89.29
2023-01-21T07:01:42.134Z,89.29
2023-01-21T07:02:42.099Z,89.40
2023-01-21T07:03:42.064Z,89.50
2023-01-21T07:04:42.128Z,89.40
2023-01-21T07:05:42.035Z,89.08
2023-01-21T07:06:42.028Z,89.04
2023-01-21T07:07:42.027Z,89.18
2023-01-21T07:08:41.987Z,89.15
2023-01-21T07:09:41.985Z,89.25
2023-01-21T07:10:41.971Z,89.15
2023-01-21T07:11:41.958Z,88.61
2023-01-21T07:12:41.943Z,88.08
2023-01-21T07:13:41.923Z,87.66
2023-01-21T07:14:41.917Z,87.34
2023-01-21T07:15:41.929Z,87.27
2023-01-21T07:16:41.910Z,87.45
2023-01-21T07:17:41.870Z,87.98
2023-01-21T07:18:41.867Z,88.19
2023-01-21T07:19:41.855Z,87.98
2023-01-21T07:20:41.835Z,87.98
2023-01-21T07:21:41.831Z,88.72
2023-01-21T07:22:41.813Z,88.72
2023-01-21T07:23:41.803Z,88.76
2023-01-21T07:24:41.788Z,89.29
2023-01-21T07:25:41.787Z,89.76
2023-01-21T07:26:41.769Z,90.29
2023-01-21T07:27:41.746Z,90.93
2023-01-21T07:28:41.748Z,91.31
2023-01-21T07:29:41.726Z,91.63
2023-01-21T07:30:41.769Z,91.53
2023-01-21T07:31:41.837Z,91.63
2023-01-21T07:32:41.721Z,91.63
2023-01-21T07:33:41.680Z,91.63
2023-01-21T07:34:41.671Z,91.85
2023-01-21T07:35:41.653Z,91.91
2023-01-21T07:36:41.636Z,91.80
2023-01-21T07:37:41.619Z,91.59
2023-01-21T07:38:41.605Z,91.38
2023-01-21T07:39:41.598Z,91.27
2023-01-21T07:40:41.597Z,91.38
2023-01-21T07:41:41.563Z,91.59
2023-01-21T07:42:41.553Z,91.59
2023-01-21T07:43:41.550Z,91.27
2023-01-21T07:44:41.524Z,91.38
2023-01-21T07:45:41.516Z,91.44
2023-01-21T07:46:41.550Z,91.34
2023-01-21T07:47:41.487Z,91.34
2023-01-21T07:48:41.507Z,90.59
2023-01-21T07:49:41.475Z,90.31
2023-01-21T07:50:41.447Z,90.31
2023-01-21T07:51:41.453Z,90.64
2023-01-21T07:52:41.427Z,91.06
2023-01-21T07:53:41.413Z,91.49
2023-01-21T07:54:41.395Z,91.77
2023-01-21T07:55:41.388Z,91.66
2023-01-21T07:56:41.389Z,91.55
2023-01-21T07:57:41.364Z,91.41
2023-01-21T07:58:41.348Z,90.55
2023-01-21T07:59:41.336Z,90.34
2023-01-21T08:00:41.322Z,90.41
2023-01-21T08:01:41.531Z,90.52
2023-01-21T08:02:41.385Z,90.26
2023-01-21T08:03:41.278Z,90.26
2023-01-21T08:04:41.298Z,89.84
2023-01-21T08:05:41.261Z,89.48
2023-01-21T08:06:41.329Z,89.01
2023-01-21T08:07:41.251Z,88.37
2023-01-21T08:08:41.233Z,87.49
2023-01-21T08:09:41.200Z,86.85
2023-01-21T08:10:41.196Z,86.54
2023-01-21T08:11:41.231Z,85.51
2023-01-21T08:12:41.176Z,85.44
2023-01-21T08:13:41.175Z,86.01
2023-01-21T08:14:41.147Z,86.82
2023-01-21T08:15:41.136Z,87.25
2023-01-21T08:16:41.155Z,87.67
2023-01-21T08:17:41.118Z,87.88
2023-01-21T08:18:41.123Z,87.88
2023-01-21T08:19:41.085Z,87.99
2023-01-21T08:20:41.093Z,87.88
2023-01-21T08:21:41.067Z,88.10
2023-01-21T08:22:41.057Z,88.42
2023-01-21T08:23:41.056Z,88.48
2023-01-21T08:24:41.014Z,88.70
2023-01-21T08:25:41.010Z,88.80
2023-01-21T08:26:40.995Z,88.59
2023-01-21T08:27:40.976Z,88.34
2023-01-21T08:28:40.971Z,87.84
2023-01-21T08:29:40.957Z,87.52
2023-01-21T08:30:40.967Z,87.52
2023-01-21T08:31:40.995Z,87.84
2023-01-21T08:32:40.921Z,87.81
2023-01-21T08:33:40.900Z,88.02
2023-01-21T08:34:40.897Z,87.87
2023-01-21T08:35:40.878Z,87.34
2023-01-21T08:36:40.891Z,86.77
2023-01-21T08:37:40.854Z,86.24
2023-01-21T08:38:40.838Z,85.93
2023-01-21T08:39:40.830Z,85.93
2023-01-21T08:40:40.816Z,85.46
2023-01-21T08:41:40.800Z,85.46
2023-01-21T08:42:40.789Z,84.93
2023-01-21T08:43:40.787Z,84.58
2023-01-21T08:44:40.755Z,84.30
2023-01-21T08:45:40.790Z,84.41
2023-01-21T08:46:40.736Z,84.72
2023-01-21T08:47:40.725Z,84.83
2023-01-21T08:48:40.707Z,85.21
2023-01-21T08:49:40.698Z,85.64
2023-01-21T08:50:40.703Z,85.00
2023-01-21T08:51:40.671Z,84.41
2023-01-21T08:52:40.686Z,84.51
2023-01-21T08:53:40.667Z,84.97
2023-01-21T08:54:40.631Z,85.57
2023-01-21T08:55:40.622Z,85.99
2023-01-21T08:56:40.611Z,85.71
2023-01-21T08:57:40.584Z,85.07
2023-01-21T08:58:40.588Z,85.24
2023-01-21T08:59:40.565Z,84.71
2023-01-21T09:00:40.580Z,84.36
2023-01-21T09:01:40.539Z,84.04
2023-01-21T09:02:40.534Z,82.63
2023-01-21T09:03:40.523Z,82.13
2023-01-21T09:04:40.491Z,81.98
2023-01-21T09:05:40.483Z,79.63
2023-01-21T09:06:40.471Z,76.82
2023-01-21T09:07:40.477Z,74.83
2023-01-21T09:08:40.475Z,73.05
2023-01-21T09:09:40.436Z,70.92
2023-01-21T09:10:40.432Z,69.67
2023-01-21T09:11:40.402Z,69.32
2023-01-21T09:12:40.396Z,69.53
2023-01-21T09:13:40.384Z,69.11
2023-01-21T09:14:40.371Z,69.56
2023-01-21T09:15:40.358Z,68.47
2023-01-21T09:16:40.366Z,69.58
2023-01-21T09:17:40.330Z,71.26
2023-01-21T09:18:40.323Z,71.81
2023-01-21T09:19:40.296Z,72.03
2023-01-21T09:20:40.299Z,72.16
2023-01-21T09:21:40.274Z,72.72
2023-01-21T09:22:40.270Z,73.14
2023-01-21T09:23:40.262Z,74.09
2023-01-21T09:24:40.271Z,75.38
2023-01-21T09:25:40.222Z,75.91
2023-01-21T09:26:40.219Z,75.81
2023-01-21T09:27:40.199Z,76.15
2023-01-21T09:28:40.184Z,75.70
2023-01-21T09:29:40.167Z,76.75
2023-01-21T09:30:40.244Z,77.17
2023-01-21T09:31:40.214Z,77.94
2023-01-21T09:32:40.131Z,78.33
2023-01-21T09:33:40.136Z,78.44
2023-01-21T09:34:40.106Z,78.40
2023-01-21T09:35:40.091Z,79.60
2023-01-21T09:36:40.076Z,80.51
2023-01-21T09:37:40.060Z,80.82
2023-01-21T09:38:40.042Z,81.07
2023-01-21T09:39:40.032Z,81.21
2023-01-21T09:40:40.044Z,82.09
2023-01-21T09:41:40.015Z,82.83
2023-01-21T09:42:39.997Z,83.53
2023-01-21T09:43:39.982Z,83.22
2023-01-21T09:44:39.997Z,83.39
2023-01-21T09:45:40.010Z,83.46
2023-01-21T09:46:39.939Z,82.58
2023-01-21T09:47:39.955Z,81.46
2023-01-21T09:48:39.935Z,81.70
2023-01-21T09:49:39.918Z,82.20
2023-01-21T09:50:39.895Z,82.89
2023-01-21T09:51:39.883Z,82.26
2023-01-21T09:52:39.863Z,82.20
2023-01-21T09:53:39.871Z,82.55
2023-01-21T09:54:39.848Z,82.86
2023-01-21T09:55:39.823Z,83.71
2023-01-21T09:56:39.836Z,84.16
2023-01-21T09:57:39.816Z,83.17
2023-01-21T09:58:39.806Z,81.41
2023-01-21T09:59:39.775Z,79.80
2023-01-21T10:00:39.769Z,78.43
2023-01-21T10:01:39.742Z,75.95
2023-01-21T10:02:39.733Z,74.76
2023-01-21T10:03:39.720Z,73.47
2023-01-21T10:04:39.726Z,73.05
2023-01-21T10:05:39.689Z,72.19
2023-01-21T10:06:39.683Z,72.22
2023-01-21T10:07:39.668Z,72.98
2023-01-21T10:08:39.660Z,73.65
2023-01-21T10:09:39.641Z,74.83
2023-01-21T10:10:39.636Z,76.02
2023-01-21T10:11:39.608Z,77.17
2023-01-21T10:12:39.629Z,77.91
2023-01-21T10:13:39.581Z,77.80
2023-01-21T10:14:39.580Z,77.59
2023-01-21T10:15:39.568Z,77.48
2023-01-21T10:16:39.610Z,77.38
2023-01-21T10:17:39.540Z,77.45
2023-01-21T10:18:39.517Z,76.57
2023-01-21T10:19:39.513Z,75.57
2023-01-21T10:20:39.519Z,74.84
2023-01-21T10:21:39.482Z,74.10
2023-01-21T10:22:39.475Z,74.41
2023-01-21T10:23:40.056Z,74.87
2023-01-21T10:24:39.452Z,74.76
2023-01-21T10:25:39.433Z,75.43
2023-01-21T10:26:39.422Z,76.09
2023-01-21T10:27:39.416Z,76.37
2023-01-21T10:28:39.418Z,75.78
2023-01-21T10:29:39.378Z,76.09
2023-01-21T10:30:39.512Z,76.93
2023-01-21T10:31:39.492Z,77.14
2023-01-21T10:32:39.388Z,77.45
2023-01-21T10:33:39.330Z,76.96
2023-01-21T10:34:39.308Z,77.14
2023-01-21T10:35:39.332Z,77.14
2023-01-21T10:36:39.293Z,77.56
2023-01-21T10:37:39.271Z,77.83
2023-01-21T10:38:39.262Z,77.00
2023-01-21T10:39:39.243Z,76.37
2023-01-21T10:40:39.240Z,76.96
2023-01-21T10:41:39.231Z,77.07
2023-01-21T10:42:39.216Z,76.86
2023-01-21T10:43:39.201Z,76.65
2023-01-21T10:44:39.205Z,76.54
2023-01-21T10:45:39.182Z,76.33
2023-01-21T10:46:39.163Z,76.23
2023-01-21T10:47:39.147Z,76.68
2023-01-21T10:48:39.139Z,76.89
2023-01-21T10:49:39.120Z,77.10
2023-01-21T10:50:39.147Z,77.07
2023-01-21T10:51:39.125Z,76.54
2023-01-21T10:52:39.079Z,76.57
2023-01-21T10:53:39.114Z,77.20
2023-01-21T10:54:39.072Z,77.56
2023-01-21T10:55:39.037Z,78.29
2023-01-21T10:56:39.033Z,78.43
2023-01-21T10:57:39.016Z,79.16
2023-01-21T10:58:39.006Z,79.44
2023-01-21T10:59:38.995Z,79.09
2023-01-21T11:00:39.004Z,78.39
2023-01-21T11:01:39.073Z,76.82
2023-01-21T11:02:38.969Z,76.61
2023-01-21T11:03:39.048Z,77.00
2023-01-21T11:04:38.923Z,76.40
2023-01-21T11:05:38.933Z,75.50
2023-01-21T11:06:38.908Z,73.38
2023-01-21T11:07:38.889Z,72.09
2023-01-21T11:08:38.932Z,71.22
2023-01-21T11:09:38.862Z,71.04
2023-01-21T11:10:38.854Z,70.81
2023-01-21T11:11:38.831Z,71.12
2023-01-21T11:12:38.830Z,70.21
2023-01-21T11:13:38.816Z,71.36
2023-01-21T11:14:38.793Z,71.64
2023-01-21T11:15:38.831Z,72.40
2023-01-21T11:16:38.791Z,73.90
2023-01-21T11:17:38.759Z,74.55
2023-01-21T11:18:38.741Z,74.98
2023-01-21T11:19:38.728Z,75.29
2023-01-21T11:20:38.715Z,75.81
2023-01-21T11:21:38.707Z,76.65
2023-01-21T11:22:38.692Z,77.42
2023-01-21T11:23:38.682Z,77.31
2023-01-21T11:24:38.666Z,77.52
2023-01-21T11:25:38.659Z,77.83
2023-01-21T11:26:38.638Z,77.52
2023-01-21T11:27:38.638Z,78.25
2023-01-21T11:28:38.621Z,77.83
2023-01-21T11:29:38.609Z,77.83
2023-01-21T11:30:50.578Z,78.15
2023-01-21T11:31:39.769Z,78.56
2023-01-21T11:32:38.590Z,78.53
2023-01-21T11:33:38.551Z,77.20
2023-01-21T11:34:38.538Z,77.66
2023-01-21T11:35:38.532Z,76.75
2023-01-21T11:36:38.518Z,77.69
2023-01-21T11:37:38.499Z,78.05
2023-01-21T11:38:38.485Z,77.14
2023-01-21T11:39:38.483Z,78.11
2023-01-21T11:40:38.466Z,79.06
2023-01-21T11:41:38.449Z,78.47
2023-01-21T11:42:38.425Z,78.67
2023-01-21T11:43:38.417Z,78.92
2023-01-21T11:44:38.418Z,78.29
2023-01-21T11:45:38.393Z,79.10
2023-01-21T11:46:38.383Z,79.20
2023-01-21T11:47:38.392Z,79.20
2023-01-21T11:48:38.373Z,79.83
2023-01-21T11:49:38.347Z,79.66
2023-01-21T11:50:38.333Z,79.62
2023-01-21T11:51:38.316Z,79.55
2023-01-21T11:52:38.305Z,80.04
2023-01-21T11:53:38.294Z,79.72
2023-01-21T11:54:38.275Z,80.00
2023-01-21T11:55:38.261Z,80.43
2023-01-21T11:56:38.269Z,80.91
2023-01-21T11:57:38.235Z,80.53
2023-01-21T11:58:38.224Z,81.20
2023-01-21T11:59:38.229Z,81.79
2023-01-21T12:00:38.197Z,81.48
2023-01-21T12:01:38.195Z,81.58
2023-01-21T12:02:38.257Z,81.73
2023-01-21T12:03:38.220Z,81.93
2023-01-21T12:04:38.175Z,82.21
2023-01-21T12:05:38.131Z,82.04
2023-01-21T12:06:38.122Z,81.62
2023-01-21T12:07:38.097Z,82.67
2023-01-21T12:08:38.098Z,82.35
2023-01-21T12:09:38.070Z,82.14
2023-01-21T12:10:38.068Z,82.67
2023-01-21T12:11:38.053Z,82.46
2023-01-21T12:12:38.041Z,83.72
2023-01-21T12:13:38.045Z,82.88
2023-01-21T12:14:38.015Z,82.25
2023-01-21T12:15:38.068Z,81.73
2023-01-21T12:16:37.985Z,82.81
2023-01-21T12:17:40.068Z,81.55
2023-01-21T12:18:37.967Z,82.29
2023-01-21T12:19:37.948Z,82.50
2023-01-21T12:20:37.957Z,82.92
2023-01-21T12:21:37.926Z,82.92
2023-01-21T12:22:37.905Z,83.86
2023-01-21T12:23:37.913Z,83.44
2023-01-21T12:24:37.888Z,83.13
2023-01-21T12:25:37.863Z,82.81
2023-01-21T12:26:37.859Z,83.34
2023-01-21T12:27:37.838Z,83.02
2023-01-21T12:28:37.832Z,82.81
2023-01-21T12:29:37.817Z,83.34
2023-01-21T12:30:37.849Z,82.75
2023-01-21T12:31:37.870Z,82.01
2023-01-21T12:32:37.779Z,82.32
2023-01-21T12:33:37.765Z,83.17
2023-01-21T12:34:37.762Z,83.80
2023-01-21T12:35:37.759Z,83.90
2023-01-21T12:36:37.773Z,83.37
2023-01-21T12:37:37.718Z,83.80
2023-01-21T12:38:37.703Z,84.42
2023-01-21T12:39:37.688Z,84.74
2023-01-21T12:40:37.688Z,85.06
2023-01-21T12:41:37.662Z,84.84
2023-01-21T12:42:37.768Z,84.11
2023-01-21T12:43:37.635Z,84.11
2023-01-21T12:44:37.621Z,84.42
2023-01-21T12:45:37.617Z,84.32
2023-01-21T12:46:37.692Z,84.36
2023-01-21T12:47:37.579Z,84.67
2023-01-21T12:48:37.567Z,84.99
2023-01-21T12:49:37.560Z,84.47
2023-01-21T12:50:37.549Z,84.36
2023-01-21T12:51:37.539Z,84.89
2023-01-21T12:52:37.556Z,85.52